sensor_id;sensor_type;location;lat;lon;timestamp;P1;durP1;ratioP1;P2;durP2;ratioP2
18136;SDS011;9194;42.632;23.298;2023-07-30T00:02:57;2.30;;;2.10;;
18136;SDS011;9194;42.632;23.298;2023-07-30T00:07:59;2.35;;;2.15;;
18136;SDS011;9194;42.632;23.298;2023-07-30T00:13:00;2.72;;;2.20;;
18136;SDS011;9194;42.632;23.298;2023-07-30T00:18:01;2.20;;;2.00;;
18136;SDS011;9194;42.632;23.298;2023-07-30T00:23:02;5.88;;;2.00;;
18136;SDS011;9194;42.632;23.298;2023-07-30T00:28:03;1.95;;;1.85;;
18136;SDS011;9194;42.632;23.298;2023-07-30T00:33:05;2.22;;;2.05;;
18136;SDS011;9194;42.632;23.298;2023-07-30T00:38:06;2.47;;;2.30;;
18136;SDS011;9194;42.632;23.298;2023-07-30T00:43:07;3.10;;;2.30;;
18136;SDS011;9194;42.632;23.298;2023-07-30T00:48:09;2.17;;;1.98;;
18136;SDS011;9194;42.632;23.298;2023-07-30T00:53:11;2.00;;;1.90;;
18136;SDS011;9194;42.632;23.298;2023-07-30T00:58:16;3.72;;;2.10;;
18136;SDS011;9194;42.632;23.298;2023-07-30T01:03:19;1.95;;;1.85;;
18136;SDS011;9194;42.632;23.298;2023-07-30T01:08:20;2.22;;;2.13;;
18136;SDS011;9194;42.632;23.298;2023-07-30T01:13:21;1.95;;;1.85;;
18136;SDS011;9194;42.632;23.298;2023-07-30T01:18:23;2.30;;;2.15;;
18136;SDS011;9194;42.632;23.298;2023-07-30T01:23:25;2.25;;;2.15;;
18136;SDS011;9194;42.632;23.298;2023-07-30T01:28:27;2.47;;;2.10;;
18136;SDS011;9194;42.632;23.298;2023-07-30T01:33:29;2.13;;;2.03;;
18136;SDS011;9194;42.632;23.298;2023-07-30T01:38:31;2.50;;;2.20;;
18136;SDS011;9194;42.632;23.298;2023-07-30T01:43:33;2.05;;;1.92;;
18136;SDS011;9194;42.632;23.298;2023-07-30T01:48:35;4.30;;;2.40;;
18136;SDS011;9194;42.632;23.298;2023-07-30T01:53:36;2.20;;;2.08;;
18136;SDS011;9194;42.632;23.298;2023-07-30T01:58:37;4.63;;;2.28;;
18136;SDS011;9194;42.632;23.298;2023-07-30T02:03:38;5.63;;;2.15;;
18136;SDS011;9194;42.632;23.298;2023-07-30T02:08:39;3.53;;;2.00;;
18136;SDS011;9194;42.632;23.298;2023-07-30T02:13:41;2.38;;;2.17;;
18136;SDS011;9194;42.632;23.298;2023-07-30T02:18:44;2.60;;;2.10;;
18136;SDS011;9194;42.632;23.298;2023-07-30T02:23:45;2.40;;;2.30;;
18136;SDS011;9194;42.632;23.298;2023-07-30T02:28:46;8.23;;;2.50;;
18136;SDS011;9194;42.632;23.298;2023-07-30T02:33:48;2.60;;;2.40;;
18136;SDS011;9194;42.632;23.298;2023-07-30T02:38:49;2.30;;;2.20;;
18136;SDS011;9194;42.632;23.298;2023-07-30T02:43:50;3.30;;;1.95;;
18136;SDS011;9194;42.632;23.298;2023-07-30T02:48:51;3.78;;;2.25;;
18136;SDS011;9194;42.632;23.298;2023-07-30T02:53:52;3.08;;;2.22;;
18136;SDS011;9194;42.632;23.298;2023-07-30T02:58:58;2.33;;;2.22;;
18136;SDS011;9194;42.632;23.298;2023-07-30T03:04:00;5.95;;;2.58;;
18136;SDS011;9194;42.632;23.298;2023-07-30T03:09:01;2.20;;;2.10;;
18136;SDS011;9194;42.632;23.298;2023-07-30T03:14:03;2.47;;;2.30;;
18136;SDS011;9194;42.632;23.298;2023-07-30T03:19:04;2.55;;;2.35;;
18136;SDS011;9194;42.632;23.298;2023-07-30T03:24:06;3.78;;;2.25;;
18136;SDS011;9194;42.632;23.298;2023-07-30T03:29:07;7.10;;;2.70;;
18136;SDS011;9194;42.632;23.298;2023-07-30T03:34:08;4.45;;;2.35;;
18136;SDS011;9194;42.632;23.298;2023-07-30T03:39:09;2.53;;;2.30;;
18136;SDS011;9194;42.632;23.298;2023-07-30T03:44:11;2.80;;;2.60;;
18136;SDS011;9194;42.632;23.298;2023-07-30T03:49:12;2.60;;;2.40;;
18136;SDS011;9194;42.632;23.298;2023-07-30T03:54:14;3.90;;;2.50;;
18136;SDS011;9194;42.632;23.298;2023-07-30T03:59:15;2.60;;;2.40;;
18136;SDS011;9194;42.632;23.298;2023-07-30T04:04:16;3.28;;;2.47;;
18136;SDS011;9194;42.632;23.298;2023-07-30T04:09:17;3.55;;;2.35;;
18136;SDS011;9194;42.632;23.298;2023-07-30T04:14:18;2.78;;;2.50;;
18136;SDS011;9194;42.632;23.298;2023-07-30T04:19:20;3.53;;;2.70;;
18136;SDS011;9194;42.632;23.298;2023-07-30T04:24:21;4.45;;;2.85;;
18136;SDS011;9194;42.632;23.298;2023-07-30T04:29:23;3.33;;;2.55;;
18136;SDS011;9194;42.632;23.298;2023-07-30T04:34:25;3.13;;;2.92;;
18136;SDS011;9194;42.632;23.298;2023-07-30T04:39:26;9.52;;;2.75;;
18136;SDS011;9194;42.632;23.298;2023-07-30T04:44:28;2.47;;;2.33;;
18136;SDS011;9194;42.632;23.298;2023-07-30T04:49:34;2.60;;;2.40;;
18136;SDS011;9194;42.632;23.298;2023-07-30T04:54:37;9.68;;;2.75;;
18136;SDS011;9194;42.632;23.298;2023-07-30T04:59:39;5.60;;;2.58;;
18136;SDS011;9194;42.632;23.298;2023-07-30T05:04:40;7.03;;;3.00;;
18136;SDS011;9194;42.632;23.298;2023-07-30T05:09:41;5.85;;;3.25;;
18136;SDS011;9194;42.632;23.298;2023-07-30T05:14:42;3.05;;;2.75;;
18136;SDS011;9194;42.632;23.298;2023-07-30T05:19:44;5.53;;;3.00;;
18136;SDS011;9194;42.632;23.298;2023-07-30T05:24:45;3.40;;;2.88;;
18136;SDS011;9194;42.632;23.298;2023-07-30T05:29:46;7.15;;;3.45;;
18136;SDS011;9194;42.632;23.298;2023-07-30T05:34:47;4.07;;;3.33;;
18136;SDS011;9194;42.632;23.298;2023-07-30T05:39:49;3.97;;;3.50;;
18136;SDS011;9194;42.632;23.298;2023-07-30T05:44:50;7.65;;;3.35;;
18136;SDS011;9194;42.632;23.298;2023-07-30T05:49:51;6.22;;;4.15;;
18136;SDS011;9194;42.632;23.298;2023-07-30T05:54:52;5.97;;;3.97;;
18136;SDS011;9194;42.632;23.298;2023-07-30T06:25:05;7.95;;;3.63;;
18136;SDS011;9194;42.632;23.298;2023-07-30T06:30:07;6.40;;;4.07;;
18136;SDS011;9194;42.632;23.298;2023-07-30T06:35:08;11.52;;;3.78;;
18136;SDS011;9194;42.632;23.298;2023-07-30T06:40:09;4.80;;;3.38;;
18136;SDS011;9194;42.632;23.298;2023-07-30T06:45:10;6.47;;;3.72;;
18136;SDS011;9194;42.632;23.298;2023-07-30T06:50:12;7.25;;;4.35;;
18136;SDS011;9194;42.632;23.298;2023-07-30T06:55:13;8.80;;;3.80;;
18136;SDS011;9194;42.632;23.298;2023-07-30T07:00:15;4.95;;;3.35;;
18136;SDS011;9194;42.632;23.298;2023-07-30T07:05:22;8.63;;;3.35;;
18136;SDS011;9194;42.632;23.298;2023-07-30T07:10:23;12.70;;;3.90;;
18136;SDS011;9194;42.632;23.298;2023-07-30T07:15:24;8.88;;;3.65;;
18136;SDS011;9194;42.632;23.298;2023-07-30T07:20:25;7.07;;;2.97;;
18136;SDS011;9194;42.632;23.298;2023-07-30T07:25:27;8.10;;;3.63;;
18136;SDS011;9194;42.632;23.298;2023-07-30T07:30:28;8.52;;;3.85;;
18136;SDS011;9194;42.632;23.298;2023-07-30T07:35:29;6.97;;;3.55;;
18136;SDS011;9194;42.632;23.298;2023-07-30T07:40:30;6.20;;;3.10;;
18136;SDS011;9194;42.632;23.298;2023-07-30T07:45:36;10.93;;;3.67;;
18136;SDS011;9194;42.632;23.298;2023-07-30T07:50:37;13.68;;;3.72;;
18136;SDS011;9194;42.632;23.298;2023-07-30T07:55:38;18.95;;;3.50;;
18136;SDS011;9194;42.632;23.298;2023-07-30T08:00:39;10.48;;;3.05;;
18136;SDS011;9194;42.632;23.298;2023-07-30T08:05:41;11.07;;;3.30;;
18136;SDS011;9194;42.632;23.298;2023-07-30T08:10:42;4.25;;;2.97;;
18136;SDS011;9194;42.632;23.298;2023-07-30T08:15:44;4.22;;;3.20;;
18136;SDS011;9194;42.632;23.298;2023-07-30T08:20:45;7.07;;;3.60;;
18136;SDS011;9194;42.632;23.298;2023-07-30T08:25:47;5.60;;;2.80;;
18136;SDS011;9194;42.632;23.298;2023-07-30T08:30:48;9.07;;;3.42;;
18136;SDS011;9194;42.632;23.298;2023-07-30T08:35:49;7.50;;;3.28;;
18136;SDS011;9194;42.632;23.298;2023-07-30T08:40:50;7.95;;;3.00;;
18136;SDS011;9194;42.632;23.298;2023-07-30T08:45:53;3.40;;;2.70;;
18136;SDS011;9194;42.632;23.298;2023-07-30T08:50:58;8.38;;;3.33;;
18136;SDS011;9194;42.632;23.298;2023-07-30T08:56:00;6.05;;;3.08;;
18136;SDS011;9194;42.632;23.298;2023-07-30T09:01:05;6.28;;;3.00;;
18136;SDS011;9194;42.632;23.298;2023-07-30T09:06:12;2.75;;;2.50;;
18136;SDS011;9194;42.632;23.298;2023-07-30T09:11:14;4.72;;;2.88;;
18136;SDS011;9194;42.632;23.298;2023-07-30T09:16:15;2.72;;;2.53;;
18136;SDS011;9194;42.632;23.298;2023-07-30T09:21:16;5.65;;;2.88;;
18136;SDS011;9194;42.632;23.298;2023-07-30T09:26:17;3.10;;;2.85;;
18136;SDS011;9194;42.632;23.298;2023-07-30T09:31:18;3.40;;;3.10;;
18136;SDS011;9194;42.632;23.298;2023-07-30T09:36:20;3.65;;;2.70;;
18136;SDS011;9194;42.632;23.298;2023-07-30T09:41:21;7.53;;;2.97;;
18136;SDS011;9194;42.632;23.298;2023-07-30T09:46:22;3.92;;;2.85;;
18136;SDS011;9194;42.632;23.298;2023-07-30T09:51:29;4.10;;;3.38;;
18136;SDS011;9194;42.632;23.298;2023-07-30T09:56:31;5.53;;;3.30;;
18136;SDS011;9194;42.632;23.298;2023-07-30T10:01:36;14.88;;;3.40;;
18136;SDS011;9194;42.632;23.298;2023-07-30T10:07:24;3.75;;;3.25;;
18136;SDS011;9194;42.632;23.298;2023-07-30T10:12:13;3.72;;;3.05;;
18136;SDS011;9194;42.632;23.298;2023-07-30T10:17:17;3.65;;;3.30;;
18136;SDS011;9194;42.632;23.298;2023-07-30T10:22:22;3.80;;;3.17;;
18136;SDS011;9194;42.632;23.298;2023-07-30T10:27:27;12.35;;;3.40;;
18136;SDS011;9194;42.632;23.298;2023-07-30T10:38:00;3.28;;;2.97;;
18136;SDS011;9194;42.632;23.298;2023-07-30T10:43:36;7.88;;;3.55;;
18136;SDS011;9194;42.632;23.298;2023-07-30T10:48:43;5.63;;;3.50;;
18136;SDS011;9194;42.632;23.298;2023-07-30T10:53:49;4.63;;;3.65;;
18136;SDS011;9194;42.632;23.298;2023-07-30T10:58:51;3.47;;;3.17;;
18136;SDS011;9194;42.632;23.298;2023-07-30T11:03:54;3.47;;;3.20;;
18136;SDS011;9194;42.632;23.298;2023-07-30T11:08:55;8.55;;;3.42;;
18136;SDS011;9194;42.632;23.298;2023-07-30T11:13:56;7.32;;;3.50;;
18136;SDS011;9194;42.632;23.298;2023-07-30T11:18:59;5.13;;;3.03;;
18136;SDS011;9194;42.632;23.298;2023-07-30T11:24:00;5.13;;;3.20;;
18136;SDS011;9194;42.632;23.298;2023-07-30T11:29:13;3.85;;;3.53;;
18136;SDS011;9194;42.632;23.298;2023-07-30T11:34:15;4.25;;;3.17;;
18136;SDS011;9194;42.632;23.298;2023-07-30T11:39:17;6.97;;;3.88;;
18136;SDS011;9194;42.632;23.298;2023-07-30T11:44:31;3.97;;;3.42;;
18136;SDS011;9194;42.632;23.298;2023-07-30T11:49:35;4.93;;;3.53;;
18136;SDS011;9194;42.632;23.298;2023-07-30T11:54:36;4.82;;;3.40;;
18136;SDS011;9194;42.632;23.298;2023-07-30T11:59:38;8.10;;;3.55;;
18136;SDS011;9194;42.632;23.298;2023-07-30T12:04:44;4.53;;;3.50;;
18136;SDS011;9194;42.632;23.298;2023-07-30T12:09:45;3.60;;;3.30;;
18136;SDS011;9194;42.632;23.298;2023-07-30T12:19:50;3.92;;;3.58;;
18136;SDS011;9194;42.632;23.298;2023-07-30T12:24:52;3.72;;;3.30;;
18136;SDS011;9194;42.632;23.298;2023-07-30T12:29:53;3.80;;;3.40;;
18136;SDS011;9194;42.632;23.298;2023-07-30T12:34:54;8.65;;;3.78;;
18136;SDS011;9194;42.632;23.298;2023-07-30T12:39:56;3.72;;;3.42;;
18136;SDS011;9194;42.632;23.298;2023-07-30T12:44:57;9.52;;;3.35;;
18136;SDS011;9194;42.632;23.298;2023-07-30T12:49:58;4.88;;;3.28;;
18136;SDS011;9194;42.632;23.298;2023-07-30T12:55:00;3.70;;;3.40;;
18136;SDS011;9194;42.632;23.298;2023-07-30T13:00:02;10.57;;;3.80;;
18136;SDS011;9194;42.632;23.298;2023-07-30T13:05:05;3.80;;;3.50;;
18136;SDS011;9194;42.632;23.298;2023-07-30T13:10:07;6.40;;;3.25;;
18136;SDS011;9194;42.632;23.298;2023-07-30T13:15:09;4.70;;;3.08;;
18136;SDS011;9194;42.632;23.298;2023-07-30T13:20:11;6.88;;;4.05;;
18136;SDS011;9194;42.632;23.298;2023-07-30T13:25:13;5.25;;;3.92;;
18136;SDS011;9194;42.632;23.298;2023-07-30T13:30:14;4.05;;;3.65;;
18136;SDS011;9194;42.632;23.298;2023-07-30T13:35:16;5.03;;;3.40;;
18136;SDS011;9194;42.632;23.298;2023-07-30T13:40:17;7.03;;;3.67;;
18136;SDS011;9194;42.632;23.298;2023-07-30T13:45:18;7.07;;;3.83;;
18136;SDS011;9194;42.632;23.298;2023-07-30T13:50:19;7.63;;;3.75;;
18136;SDS011;9194;42.632;23.298;2023-07-30T13:55:21;5.82;;;3.65;;
18136;SDS011;9194;42.632;23.298;2023-07-30T14:00:22;4.47;;;3.75;;
18136;SDS011;9194;42.632;23.298;2023-07-30T14:05:23;4.50;;;3.85;;
18136;SDS011;9194;42.632;23.298;2023-07-30T14:10:24;6.40;;;3.60;;
18136;SDS011;9194;42.632;23.298;2023-07-30T14:15:26;5.18;;;3.97;;
18136;SDS011;9194;42.632;23.298;2023-07-30T14:20:27;5.20;;;3.58;;
18136;SDS011;9194;42.632;23.298;2023-07-30T14:25:28;8.57;;;4.15;;
18136;SDS011;9194;42.632;23.298;2023-07-30T14:30:30;6.47;;;4.00;;
18136;SDS011;9194;42.632;23.298;2023-07-30T14:35:31;3.85;;;3.50;;
18136;SDS011;9194;42.632;23.298;2023-07-30T14:40:32;4.85;;;3.97;;
18136;SDS011;9194;42.632;23.298;2023-07-30T14:45:33;6.50;;;4.05;;
18136;SDS011;9194;42.632;23.298;2023-07-30T14:50:35;5.60;;;4.38;;
18136;SDS011;9194;42.632;23.298;2023-07-30T14:55:36;8.75;;;3.80;;
18136;SDS011;9194;42.632;23.298;2023-07-30T15:00:37;5.47;;;3.50;;
18136;SDS011;9194;42.632;23.298;2023-07-30T15:05:38;7.18;;;3.83;;
18136;SDS011;9194;42.632;23.298;2023-07-30T15:10:39;6.63;;;3.90;;
18136;SDS011;9194;42.632;23.298;2023-07-30T15:15:41;9.55;;;4.40;;
18136;SDS011;9194;42.632;23.298;2023-07-30T15:20:42;5.05;;;4.30;;
18136;SDS011;9194;42.632;23.298;2023-07-30T15:25:44;9.50;;;4.47;;
18136;SDS011;9194;42.632;23.298;2023-07-30T15:30:45;10.82;;;4.25;;
18136;SDS011;9194;42.632;23.298;2023-07-30T15:35:46;13.95;;;4.30;;
18136;SDS011;9194;42.632;23.298;2023-07-30T15:40:52;19.35;;;4.55;;
18136;SDS011;9194;42.632;23.298;2023-07-30T15:45:53;18.42;;;4.20;;
18136;SDS011;9194;42.632;23.298;2023-07-30T15:51:02;6.15;;;4.07;;
18136;SDS011;9194;42.632;23.298;2023-07-30T15:56:03;25.63;;;4.25;;
18136;SDS011;9194;42.632;23.298;2023-07-30T16:01:05;6.65;;;3.92;;
18136;SDS011;9194;42.632;23.298;2023-07-30T16:06:10;6.28;;;3.83;;
18136;SDS011;9194;42.632;23.298;2023-07-30T16:11:11;7.78;;;4.00;;
18136;SDS011;9194;42.632;23.298;2023-07-30T16:16:13;7.88;;;4.22;;
18136;SDS011;9194;42.632;23.298;2023-07-30T16:21:16;7.78;;;4.10;;
18136;SDS011;9194;42.632;23.298;2023-07-30T16:26:17;12.07;;;3.80;;
18136;SDS011;9194;42.632;23.298;2023-07-30T16:31:18;8.68;;;3.80;;
18136;SDS011;9194;42.632;23.298;2023-07-30T16:36:20;6.63;;;3.92;;
18136;SDS011;9194;42.632;23.298;2023-07-30T16:41:24;6.88;;;3.88;;
18136;SDS011;9194;42.632;23.298;2023-07-30T16:46:25;8.45;;;4.28;;
18136;SDS011;9194;42.632;23.298;2023-07-30T16:51:26;5.70;;;3.85;;
18136;SDS011;9194;42.632;23.298;2023-07-30T16:56:27;5.47;;;4.00;;
18136;SDS011;9194;42.632;23.298;2023-07-30T17:01:28;8.45;;;3.92;;
18136;SDS011;9194;42.632;23.298;2023-07-30T17:06:30;11.93;;;4.55;;
18136;SDS011;9194;42.632;23.298;2023-07-30T17:11:31;4.53;;;4.13;;
18136;SDS011;9194;42.632;23.298;2023-07-30T17:16:32;6.65;;;4.20;;
18136;SDS011;9194;42.632;23.298;2023-07-30T17:21:38;7.05;;;3.58;;
18136;SDS011;9194;42.632;23.298;2023-07-30T17:26:39;4.65;;;4.13;;
18136;SDS011;9194;42.632;23.298;2023-07-30T17:31:40;8.15;;;3.90;;
18136;SDS011;9194;42.632;23.298;2023-07-30T17:36:41;10.55;;;4.68;;
18136;SDS011;9194;42.632;23.298;2023-07-30T17:41:42;10.40;;;4.40;;
18136;SDS011;9194;42.632;23.298;2023-07-30T17:46:44;5.55;;;4.15;;
18136;SDS011;9194;42.632;23.298;2023-07-30T17:51:50;9.57;;;4.10;;
18136;SDS011;9194;42.632;23.298;2023-07-30T17:56:52;20.27;;;4.68;;
18136;SDS011;9194;42.632;23.298;2023-07-30T18:01:53;7.63;;;4.65;;
18136;SDS011;9194;42.632;23.298;2023-07-30T18:06:55;5.60;;;4.47;;
18136;SDS011;9194;42.632;23.298;2023-07-30T18:11:56;3.95;;;3.63;;
18136;SDS011;9194;42.632;23.298;2023-07-30T18:16:57;6.35;;;4.20;;
18136;SDS011;9194;42.632;23.298;2023-07-30T18:21:58;7.03;;;4.43;;
18136;SDS011;9194;42.632;23.298;2023-07-30T18:26:59;6.57;;;4.18;;
18136;SDS011;9194;42.632;23.298;2023-07-30T18:32:07;5.55;;;4.13;;
18136;SDS011;9194;42.632;23.298;2023-07-30T18:37:09;6.85;;;4.30;;
18136;SDS011;9194;42.632;23.298;2023-07-30T18:42:11;4.75;;;4.28;;
18136;SDS011;9194;42.632;23.298;2023-07-30T18:47:12;5.82;;;3.80;;
18136;SDS011;9194;42.632;23.298;2023-07-30T18:52:13;4.72;;;4.10;;
18136;SDS011;9194;42.632;23.298;2023-07-30T18:57:14;7.72;;;4.07;;
18136;SDS011;9194;42.632;23.298;2023-07-30T19:02:16;9.93;;;5.03;;
18136;SDS011;9194;42.632;23.298;2023-07-30T19:07:17;8.00;;;4.30;;
18136;SDS011;9194;42.632;23.298;2023-07-30T19:12:18;4.97;;;4.25;;
18136;SDS011;9194;42.632;23.298;2023-07-30T19:17:20;14.70;;;4.40;;
18136;SDS011;9194;42.632;23.298;2023-07-30T19:22:22;6.40;;;4.53;;
18136;SDS011;9194;42.632;23.298;2023-07-30T19:27:24;6.35;;;4.10;;
18136;SDS011;9194;42.632;23.298;2023-07-30T19:32:25;6.47;;;3.95;;
18136;SDS011;9194;42.632;23.298;2023-07-30T19:37:26;8.13;;;4.40;;
18136;SDS011;9194;42.632;23.298;2023-07-30T19:42:27;8.43;;;4.20;;
18136;SDS011;9194;42.632;23.298;2023-07-30T19:47:28;4.20;;;3.72;;
18136;SDS011;9194;42.632;23.298;2023-07-30T19:52:30;10.00;;;4.65;;
18136;SDS011;9194;42.632;23.298;2023-07-30T19:57:32;4.85;;;4.38;;
18136;SDS011;9194;42.632;23.298;2023-07-30T20:02:33;4.45;;;3.97;;
18136;SDS011;9194;42.632;23.298;2023-07-30T20:07:34;8.98;;;4.05;;
18136;SDS011;9194;42.632;23.298;2023-07-30T20:12:36;11.70;;;4.20;;
18136;SDS011;9194;42.632;23.298;2023-07-30T20:17:37;7.07;;;4.22;;
18136;SDS011;9194;42.632;23.298;2023-07-30T20:22:39;4.70;;;4.00;;
18136;SDS011;9194;42.632;23.298;2023-07-30T20:27:40;6.22;;;4.00;;
18136;SDS011;9194;42.632;23.298;2023-07-30T20:32:41;5.63;;;3.63;;
18136;SDS011;9194;42.632;23.298;2023-07-30T20:37:43;5.72;;;3.72;;
18136;SDS011;9194;42.632;23.298;2023-07-30T20:42:44;3.95;;;3.10;;
18136;SDS011;9194;42.632;23.298;2023-07-30T20:47:48;4.13;;;2.83;;
18136;SDS011;9194;42.632;23.298;2023-07-30T20:52:50;4.32;;;3.40;;
18136;SDS011;9194;42.632;23.298;2023-07-30T20:57:52;4.07;;;3.15;;
18136;SDS011;9194;42.632;23.298;2023-07-30T21:02:53;5.35;;;2.83;;
18136;SDS011;9194;42.632;23.298;2023-07-30T21:07:54;4.22;;;3.15;;
18136;SDS011;9194;42.632;23.298;2023-07-30T21:12:55;6.68;;;3.38;;
18136;SDS011;9194;42.632;23.298;2023-07-30T21:17:57;3.40;;;3.13;;
18136;SDS011;9194;42.632;23.298;2023-07-30T21:22:58;2.90;;;2.70;;
18136;SDS011;9194;42.632;23.298;2023-07-30T21:27:59;2.70;;;2.47;;
18136;SDS011;9194;42.632;23.298;2023-07-30T21:33:00;2.45;;;2.35;;
18136;SDS011;9194;42.632;23.298;2023-07-30T21:38:01;2.80;;;2.47;;
18136;SDS011;9194;42.632;23.298;2023-07-30T21:43:03;2.70;;;2.50;;
18136;SDS011;9194;42.632;23.298;2023-07-30T21:48:04;2.55;;;2.35;;
18136;SDS011;9194;42.632;23.298;2023-07-30T21:53:06;2.13;;;1.98;;
18136;SDS011;9194;42.632;23.298;2023-07-30T21:58:07;3.78;;;2.67;;
18136;SDS011;9194;42.632;23.298;2023-07-30T22:03:09;2.55;;;2.45;;
18136;SDS011;9194;42.632;23.298;2023-07-30T22:08:10;2.80;;;2.60;;
18136;SDS011;9194;42.632;23.298;2023-07-30T22:13:12;2.70;;;2.28;;
18136;SDS011;9194;42.632;23.298;2023-07-30T22:18:14;2.38;;;2.20;;
18136;SDS011;9194;42.632;23.298;2023-07-30T22:23:16;2.58;;;2.38;;
18136;SDS011;9194;42.632;23.298;2023-07-30T22:28:17;2.50;;;2.40;;
18136;SDS011;9194;42.632;23.298;2023-07-30T22:33:18;3.00;;;2.70;;
18136;SDS011;9194;42.632;23.298;2023-07-30T22:38:20;4.85;;;2.95;;
18136;SDS011;9194;42.632;23.298;2023-07-30T22:43:21;26.48;;;3.47;;
18136;SDS011;9194;42.632;23.298;2023-07-30T22:48:23;9.05;;;3.70;;
18136;SDS011;9194;42.632;23.298;2023-07-30T22:53:24;5.22;;;3.90;;
18136;SDS011;9194;42.632;23.298;2023-07-30T22:58:25;6.60;;;4.30;;
18136;SDS011;9194;42.632;23.298;2023-07-30T23:03:27;6.50;;;4.57;;
18136;SDS011;9194;42.632;23.298;2023-07-30T23:08:28;8.30;;;5.60;;
18136;SDS011;9194;42.632;23.298;2023-07-30T23:13:29;10.05;;;5.18;;
18136;SDS011;9194;42.632;23.298;2023-07-30T23:18:30;7.40;;;5.20;;
18136;SDS011;9194;42.632;23.298;2023-07-30T23:23:34;5.28;;;4.78;;
18136;SDS011;9194;42.632;23.298;2023-07-30T23:28:35;6.93;;;5.18;;
18136;SDS011;9194;42.632;23.298;2023-07-30T23:33:36;8.77;;;5.63;;
18136;SDS011;9194;42.632;23.298;2023-07-30T23:38:37;9.82;;;4.90;;
18136;SDS011;9194;42.632;23.298;2023-07-30T23:43:38;7.18;;;4.82;;
18136;SDS011;9194;42.632;23.298;2023-07-30T23:48:40;7.50;;;4.78;;
18136;SDS011;9194;42.632;23.298;2023-07-30T23:53:41;5.18;;;4.72;;
18136;SDS011;9194;42.632;23.298;2023-07-30T23:58:42;5.57;;;4.82;;
